Time;durP1;ratioP1;P1;durP2;ratioP2;P2;SDS_P1;SDS_P2;PMS_P1;PMS_P2;Temp;Humidity;BMP_temperature;BMP_pressure;BME280_temperature;BME280_humidity;BME280_pressure;Samples;Min_cycle;Max_cycle;Signal;HPM_P1;HPM_P2
2021/07/17 04:49:20;;;;;;;32.97;25.15;;;;;;;17.85;100.00;99188.56;4866171;23;106657;-74
2021/07/17 04:51:49;;;;;;;23.35;19.55;;;;;;;17.89;100.00;99196.16;4880019;23;106001;-74
2021/07/17 04:54:17;;;;;;;26.45;20.65;;;;;;;18.07;100.00;99193.56;4908315;28;103076;-75
2021/07/17 04:56:45;;;;;;;27.23;22.38;;;;;;;18.05;100.00;99200.06;4917812;28;102965;-74
2021/07/17 04:59:13;;;;;;;26.73;23.92;;;;;;;18.04;100.00;99198.34;4905874;28;103266;-74
2021/07/17 05:01:41;;;;;;;27.38;24.25;;;;;;;18.00;100.00;99202.28;4907904;28;103095;-73
2021/07/17 05:04:10;;;;;;;25.73;21.80;;;;;;;17.99;100.00;99200.63;4903309;28;102602;-73
2021/07/17 05:06:39;;;;;;;26.10;21.73;;;;;;;18.08;100.00;99202.44;4908616;28;102989;-74
2021/07/17 05:09:07;;;;;;;19.85;17.83;;;;;;;17.99;100.00;99204.16;4904152;28;103359;-74
2021/07/17 05:11:35;;;;;;;21.65;19.45;;;;;;;18.10;100.00;99193.28;4901898;28;103069;-75
2021/07/17 05:14:03;;;;;;;18.92;16.92;;;;;;;18.12;100.00;99196.63;4892165;28;103012;-75
2021/07/17 05:16:32;;;;;;;19.58;17.58;;;;;;;18.22;99.21;99191.25;4898794;28;102726;-75
2021/07/17 05:19:00;;;;;;;19.92;16.60;;;;;;;18.18;99.54;99195.22;4905572;28;103243;-75
2021/07/17 05:21:28;;;;;;;20.58;18.35;;;;;;;18.24;99.03;99191.94;4883903;28;104418;-74
2021/07/17 05:23:57;;;;;;;21.30;17.98;;;;;;;18.30;98.57;99184.16;4925643;28;102816;-75
2021/07/17 05:26:25;;;;;;;16.58;14.95;;;;;;;18.50;97.66;99179.59;4903058;28;102708;-75
2021/07/17 05:28:53;;;;;;;20.63;18.45;;;;;;;18.53;97.50;99176.63;4906145;28;103139;-75
2021/07/17 05:31:21;;;;;;;19.30;17.13;;;;;;;18.61;96.65;99174.03;4902030;28;103195;-75
2021/07/17 05:33:50;;;;;;;19.05;17.15;;;;;;;18.60;96.89;99180.41;4899047;28;102680;-80
2021/07/17 05:36:18;;;;;;;27.00;21.83;;;;;;;18.55;96.68;99174.66;4903547;28;102729;-75
2021/07/17 05:38:46;;;;;;;23.85;20.92;;;;;;;18.59;96.76;99180.53;4905955;28;103342;-73
2021/07/17 05:41:15;;;;;;;23.25;19.95;;;;;;;18.58;96.96;99177.03;4923182;28;103222;-74
2021/07/17 05:43:43;;;;;;;20.80;18.08;;;;;;;18.49;97.33;99185.94;4912339;28;102618;-74
2021/07/17 05:46:11;;;;;;;20.95;18.02;;;;;;;18.48;97.96;99186.94;4909311;28;102921;-76
2021/07/17 05:48:39;;;;;;;21.45;18.95;;;;;;;18.41;98.73;99185.81;4917951;28;103256;-74
2021/07/17 05:51:07;;;;;;;19.45;17.50;;;;;;;18.54;97.76;99191.69;4907341;28;105611;-74
2021/07/17 05:53:36;;;;;;;22.60;19.25;;;;;;;18.47;97.95;99198.56;4906538;28;102677;-73
2021/07/17 05:56:05;;;;;;;18.05;16.20;;;;;;;18.58;97.95;99198.44;4914733;28;102686;-75
2021/07/17 05:58:34;;;;;;;23.00;20.55;;;;;;;18.16;99.75;99203.38;4910292;28;103149;-75
2021/07/17 06:01:02;;;;;;;21.45;19.13;;;;;;;18.32;100.00;99197.41;4896381;28;103090;-74
2021/07/17 06:03:30;;;;;;;18.98;17.15;;;;;;;18.54;98.79;99202.41;4912513;28;102751;-73
2021/07/17 06:05:58;;;;;;;20.60;18.38;;;;;;;18.69;97.11;99190.22;4914313;28;102726;-75
2021/07/17 06:08:26;;;;;;;20.58;18.40;;;;;;;18.87;96.14;99198.25;4905791;28;108598;-75
2021/07/17 06:10:54;;;;;;;22.48;19.60;;;;;;;18.87;96.13;99193.75;4908008;28;103113;-75
2021/07/17 06:13:22;;;;;;;25.75;19.88;;;;;;;18.96;95.51;99192.00;4910872;28;102744;-75
2021/07/17 06:15:52;;;;;;;20.55;18.58;;;;;;;19.10;95.37;99197.66;4911476;28;103181;-75
2021/07/17 06:18:22;;;;;;;22.63;20.10;;;;;;;19.14;94.61;99202.72;4914068;28;103225;-75
2021/07/17 06:20:50;;;;;;;21.02;17.85;;;;;;;18.89;96.11;99207.81;4910806;28;106030;-75
2021/07/17 06:23:18;;;;;;;25.00;22.27;;;;;;;18.29;99.14;99219.09;4911569;28;102905;-74
2021/07/17 06:25:46;;;;;;;22.08;19.27;;;;;;;18.39;99.68;99219.88;4914819;28;102719;-74
2021/07/17 06:28:14;;;;;;;17.02;15.18;;;;;;;18.59;99.37;99226.88;4913953;28;104373;-73
2021/07/17 06:30:42;;;;;;;17.27;14.73;;;;;;;18.77;97.94;99229.59;4914123;28;103201;-74
2021/07/17 06:33:11;;;;;;;19.63;17.63;;;;;;;18.88;96.59;99227.56;4906130;28;102720;-74
2021/07/17 06:35:39;;;;;;;19.45;17.35;;;;;;;18.83;96.91;99224.50;4914558;28;102636;-74
2021/07/17 06:38:07;;;;;;;17.98;16.05;;;;;;;18.95;96.25;99223.25;4898681;28;105996;-75
2021/07/17 06:40:35;;;;;;;16.40;14.70;;;;;;;19.02;95.92;99229.72;4914363;28;103218;-74
2021/07/17 06:43:04;;;;;;;21.00;18.63;;;;;;;18.96;95.95;99230.31;4911920;28;102966;-74
2021/07/17 06:45:32;;;;;;;17.85;16.00;;;;;;;18.89;96.72;99226.53;4912664;28;102640;-74
2021/07/17 06:48:00;;;;;;;26.17;19.85;;;;;;;18.69;97.09;99233.03;4894697;28;103238;-74
2021/07/17 06:50:30;;;;;;;19.33;17.35;;;;;;;18.94;96.50;99231.47;4908813;28;103571;-74
2021/07/17 06:52:58;;;;;;;14.45;12.95;;;;;;;19.17;95.92;99226.53;4901821;28;102774;-74
2021/07/17 06:55:28;;;;;;;19.42;17.40;;;;;;;18.93;95.83;99225.25;4906304;28;103007;-74
2021/07/17 06:57:57;;;;;;;23.55;18.38;;;;;;;18.93;96.59;99227.09;4902507;28;110404;-74
2021/07/17 07:00:25;;;;;;;18.35;16.48;;;;;;;19.10;96.24;99224.44;4906770;28;103686;-74
2021/07/17 07:02:53;;;;;;;17.40;15.48;;;;;;;19.38;94.00;99233.28;4911037;28;102795;-74
2021/07/17 07:05:21;;;;;;;19.35;17.38;;;;;;;19.11;94.37;99223.44;4907060;28;102714;-74
2021/07/17 07:07:50;;;;;;;21.25;18.27;;;;;;;19.24;94.10;99224.91;4904957;28;103433;-74
2021/07/17 07:10:19;;;;;;;22.13;19.30;;;;;;;18.78;95.81;99234.78;4910948;28;103169;-73
2021/07/17 07:12:47;;;;;;;20.23;18.13;;;;;;;18.90;97.16;99227.38;4889951;28;102796;-74
2021/07/17 07:15:16;;;;;;;21.38;18.48;;;;;;;19.11;94.81;99220.75;4909259;28;102665;-74
2021/07/17 07:17:44;;;;;;;18.90;16.90;;;;;;;19.32;94.04;99227.66;4905670;28;103344;-74
2021/07/17 07:20:14;;;;;;;18.48;16.52;;;;;;;19.36;93.31;99221.00;4890020;28;104550;-74
2021/07/17 07:22:43;;;;;;;16.50;14.85;;;;;;;19.18;95.44;99222.81;4904825;28;102621;-74
2021/07/17 07:25:13;;;;;;;19.55;16.83;;;;;;;19.27;94.23;99227.28;4912896;28;102796;-74
2021/07/17 07:27:42;;;;;;;22.10;17.92;;;;;;;19.01;96.23;99228.03;4909260;28;103494;-74
2021/07/17 07:30:10;;;;;;;21.73;17.65;;;;;;;19.02;95.79;99228.88;4909202;28;103847;-74
2021/07/17 07:32:53;;;;;;;18.52;16.15;;;;;;;18.98;96.30;99236.34;4908905;28;102699;-74
2021/07/17 07:35:23;;;;;;;19.17;16.63;;;;;;;18.96;96.88;99235.69;4912012;28;102855;-74
2021/07/17 07:37:52;;;;;;;21.55;19.15;;;;;;;18.84;97.25;99241.38;4915215;28;103427;-74
2021/07/17 07:40:24;;;;;;;21.38;18.50;;;;;;;18.87;97.53;99243.75;4916304;28;103298;-74
2021/07/17 07:42:52;;;;;;;23.35;18.40;;;;;;;18.96;96.51;99241.03;4920490;28;103950;-75
2021/07/17 07:45:20;;;;;;;16.83;14.65;;;;;;;19.15;96.43;99239.19;4906930;28;103298;-74
2021/07/17 07:47:49;;;;;;;26.25;19.60;;;;;;;18.88;96.76;99246.28;4906506;28;103272;-74
2021/07/17 07:50:17;;;;;;;23.90;19.85;;;;;;;18.63;99.51;99249.66;4908635;28;105317;-74
2021/07/17 07:52:45;;;;;;;19.52;17.48;;;;;;;18.88;98.45;99254.31;4909262;28;102608;-74
2021/07/17 07:55:16;;;;;;;21.23;17.75;;;;;;;18.91;98.31;99258.53;4899678;28;103505;-75
2021/07/17 07:57:45;;;;;;;24.58;17.60;;;;;;;18.99;98.73;99270.19;4911874;28;103418;-74
2021/07/17 08:00:15;;;;;;;25.05;17.95;;;;;;;18.93;98.59;99262.75;4908525;28;103107;-73
2021/07/17 08:02:51;;;;;;;21.70;17.63;;;;;;;19.07;98.57;99267.59;4911986;28;102749;-74
2021/07/17 08:05:20;;;;;;;24.23;17.67;;;;;;;19.30;96.55;99259.13;4916146;28;103251;-76
2021/07/17 08:07:48;;;;;;;25.27;18.85;;;;;;;19.07;97.70;99258.72;4915851;28;103597;-81
2021/07/17 08:10:17;;;;;;;24.17;18.95;;;;;;;19.16;97.47;99256.97;4918641;28;103187;-74
2021/07/17 08:12:46;;;;;;;20.70;17.48;;;;;;;18.99;97.89;99267.50;4916913;28;102674;-75
2021/07/17 08:15:15;;;;;;;16.77;15.07;;;;;;;19.35;96.26;99256.81;4905302;28;102884;-76
2021/07/17 08:17:43;;;;;;;22.75;17.35;;;;;;;19.49;95.56;99259.84;4913934;28;103533;-74
2021/07/17 08:20:12;;;;;;;24.30;19.60;;;;;;;19.04;97.47;99256.31;4907821;28;103254;-74
2021/07/17 08:22:42;;;;;;;16.42;14.85;;;;;;;19.15;98.49;99244.56;4912199;28;102660;-74
2021/07/17 08:25:13;;;;;;;15.63;13.98;;;;;;;19.59;96.84;99246.38;4915115;28;102785;-75
2021/07/17 08:27:41;;;;;;;21.15;16.85;;;;;;;19.85;94.56;99257.09;4914583;28;103378;-76
2021/07/17 08:30:13;;;;;;;16.45;14.70;;;;;;;20.10;92.16;99246.41;4907856;28;103090;-75
2021/07/17 08:33:01;;;;;;;21.08;17.42;;;;;;;19.87;91.86;99249.78;4913361;28;102779;-75
2021/07/17 08:35:30;;;;;;;16.98;15.18;;;;;;;20.20;90.89;99249.84;4910028;28;102786;-75
2021/07/17 08:37:58;;;;;;;16.85;14.50;;;;;;;20.51;89.25;99252.03;4899067;28;103159;-75
2021/07/17 08:40:27;;;;;;;17.13;15.05;;;;;;;20.57;88.82;99251.41;4898917;28;103115;-76
2021/07/17 08:42:56;;;;;;;16.10;13.10;;;;;;;20.28;90.70;99256.28;4921157;28;102955;-75
2021/07/17 08:45:26;;;;;;;18.73;15.63;;;;;;;20.29;90.24;99252.59;4909444;28;102769;-76
2021/07/17 08:47:57;;;;;;;18.98;14.20;;;;;;;20.67;88.92;99244.06;4906623;28;103206;-75
2021/07/17 08:50:27;;;;;;;16.77;15.07;;;;;;;20.54;89.13;99251.72;4911862;28;103609;-76
2021/07/17 08:52:57;;;;;;;18.55;15.70;;;;;;;20.58;89.04;99250.38;4911117;28;103105;-75
2021/07/17 08:55:27;;;;;;;18.45;14.77;;;;;;;20.62;87.75;99255.28;4909440;28;103123;-75
2021/07/17 08:57:56;;;;;;;20.92;16.77;;;;;;;19.95;90.64;99257.88;4916438;28;103429;-82
2021/07/17 09:00:28;;;;;;;19.95;16.52;;;;;;;19.78;92.87;99248.88;4906264;28;103880;-77
2021/07/17 09:02:58;;;;;;;22.70;16.58;;;;;;;19.92;91.75;99251.00;4914185;28;102793;-75
2021/07/17 09:05:28;;;;;;;21.25;17.98;;;;;;;19.69;92.54;99247.13;4912858;28;102812;-78
2021/07/17 09:07:58;;;;;;;19.88;15.05;;;;;;;19.86;92.82;99242.72;4909075;28;106000;-78
2021/07/17 09:10:34;;;;;;;23.23;15.35;;;;;;;20.16;90.76;99248.47;4914878;28;103765;-78
2021/07/17 09:13:07;;;;;;;17.83;13.82;;;;;;;19.98;92.34;99250.38;4911098;28;102865;-79
2021/07/17 09:15:38;;;;;;;18.15;14.98;;;;;;;19.97;91.72;99243.31;4913695;28;102860;-78
2021/07/17 09:18:08;;;;;;;18.88;16.38;;;;;;;19.89;92.18;99245.09;4916233;28;103668;-78
2021/07/17 09:20:37;;;;;;;24.98;15.73;;;;;;;19.57;93.97;99242.97;4913795;28;103178;-77
2021/07/17 09:23:07;;;;;;;15.32;13.75;;;;;;;20.06;92.21;99237.00;4915796;28;102751;-77
2021/07/17 09:25:40;;;;;;;21.65;15.93;;;;;;;20.01;91.30;99239.31;4914932;28;102639;-78
2021/07/17 09:28:20;;;;;;;15.35;12.50;;;;;;;20.24;91.06;99245.84;4915439;28;103806;-77
2021/07/17 09:30:51;;;;;;;13.68;12.40;;;;;;;20.37;89.75;99233.84;4928347;28;106024;-77
2021/07/17 09:33:19;;;;;;;19.27;14.50;;;;;;;20.07;91.31;99236.00;4910617;28;102660;-77
2021/07/17 09:35:49;;;;;;;18.45;15.98;;;;;;;19.74;93.05;99246.63;4915192;28;102988;-77
2021/07/17 09:38:18;;;;;;;19.10;13.63;;;;;;;20.16;91.65;99237.72;4906958;28;103244;-77
2021/07/17 09:40:54;;;;;;;19.50;16.35;;;;;;;19.83;93.05;99235.00;4914664;28;105925;-77
2021/07/17 09:43:28;;;;;;;16.30;14.50;;;;;;;20.13;92.58;99227.31;4882183;28;102906;-76
2021/07/17 09:45:58;;;;;;;20.48;15.10;;;;;;;20.46;91.25;99235.59;4930932;28;103998;-76
2021/07/17 09:48:29;;;;;;;16.05;14.35;;;;;;;19.99;92.41;99232.41;4913137;28;103340;-77
2021/07/17 09:50:59;;;;;;;15.57;13.38;;;;;;;20.34;90.89;99232.34;4913361;28;103622;-75
2021/07/17 09:53:38;;;;;;;13.60;12.20;;;;;;;20.82;90.22;99229.03;4886446;28;102767;-76
2021/07/17 09:56:08;;;;;;;13.63;11.90;;;;;;;21.05;87.56;99216.66;4912495;28;102729;-78
2021/07/17 09:58:38;;;;;;;21.17;14.38;;;;;;;21.50;84.23;99210.84;4914908;28;103255;-78
2021/07/17 10:01:29;;;;;;;19.80;16.00;;;;;;;21.48;85.85;99210.19;4904636;28;105820;-77
2021/07/17 10:04:04;;;;;;;17.85;14.07;;;;;;;21.78;84.19;99217.56;4908218;28;102763;-77
2021/07/17 10:06:40;;;;;;;19.85;15.23;;;;;;;21.66;84.15;99210.03;4913631;28;102875;-77
2021/07/17 10:09:24;;;;;;;13.77;12.48;;;;;;;22.14;82.21;99210.00;4911960;28;103437;-78
2021/07/17 10:11:55;;;;;;;13.02;11.82;;;;;;;22.12;82.91;99203.94;4912326;28;103088;-85
2021/07/17 10:14:25;;;;;;;15.23;13.68;;;;;;;22.16;82.32;99196.34;4911792;28;102754;-88
2021/07/17 10:16:58;;;;;;;17.58;15.77;;;;;;;21.92;82.14;99202.66;4916479;28;102864;-88
2021/07/17 10:19:28;;;;;;;19.45;16.17;;;;;;;21.89;82.80;99203.81;4915733;28;103277;-87
2021/07/17 10:21:58;;;;;;;19.70;15.60;;;;;;;21.67;83.80;99201.78;4916267;28;103122;-77
2021/07/17 10:24:27;;;;;;;13.77;12.38;;;;;;;21.99;83.50;99197.41;4912893;28;102645;-78
2021/07/17 10:26:56;;;;;;;14.95;13.45;;;;;;;22.10;82.76;99188.97;4912120;28;102802;-84
2021/07/17 10:29:26;;;;;;;14.98;13.45;;;;;;;22.32;82.37;99183.69;4906863;28;103203;-83
2021/07/17 10:31:57;;;;;;;17.00;15.30;;;;;;;22.48;80.96;99183.63;4912431;28;103158;-85
2021/07/17 10:34:27;;;;;;;16.30;14.55;;;;;;;21.95;82.73;99189.69;4904191;28;102829;-86
2021/07/17 10:37:02;;;;;;;19.55;15.85;;;;;;;22.45;81.50;99183.16;4912269;28;102649;-77
2021/07/17 10:39:33;;;;;;;16.75;15.02;;;;;;;22.54;80.55;99180.22;4906029;28;103287;-78
2021/07/17 10:42:10;;;;;;;16.85;13.93;;;;;;;22.48;82.34;99182.81;4901868;28;103278;-77
2021/07/17 10:44:40;;;;;;;17.92;15.68;;;;;;;22.25;81.19;99181.88;4915824;28;102764;-78
2021/07/17 10:47:11;;;;;;;15.63;13.90;;;;;;;22.44;82.00;99176.94;4908804;28;102801;-79
2021/07/17 10:49:41;;;;;;;16.02;14.35;;;;;;;22.57;80.97;99180.94;4921084;28;103197;-76
2021/07/17 10:52:09;;;;;;;17.00;15.32;;;;;;;22.68;79.18;99175.19;4910372;28;102591;-77
2021/07/17 10:54:38;;;;;;;14.63;13.18;;;;;;;22.93;79.13;99174.03;4914242;28;102655;-78
2021/07/17 10:57:06;;;;;;;15.63;13.98;;;;;;;23.09;78.18;99171.22;4907622;28;102960;-76
2021/07/17 10:59:45;;;;;;;17.55;14.75;;;;;;;23.31;77.25;99173.06;4911148;28;103209;-76
2021/07/17 11:02:25;;;;;;;16.98;15.18;;;;;;;22.21;80.85;99177.84;4900079;28;103677;-82
2021/07/17 11:05:01;;;;;;;17.48;15.27;;;;;;;21.97;81.60;99177.91;4916463;28;102685;-79
2021/07/17 11:07:34;;;;;;;16.17;14.55;;;;;;;22.32;79.67;99172.94;4890082;28;102708;-80
2021/07/17 11:10:09;;;;;;;16.73;14.10;;;;;;;22.15;80.56;99176.69;4914278;28;103818;-79
2021/07/17 11:12:56;;;;;;;13.95;12.65;;;;;;;22.31;80.66;99176.66;4888178;28;103417;-78
2021/07/17 11:15:46;;;;;;;14.85;13.15;;;;;;;22.59;81.19;99184.28;4906519;28;103831;-78
2021/07/17 11:18:38;;;;;;;18.15;15.13;;;;;;;22.59;80.20;99176.19;4912074;28;102728;-85
2021/07/17 11:21:25;;;;;;;14.73;13.30;;;;;;;22.76;79.49;99169.75;4911382;28;105409;-81
2021/07/17 11:23:53;;;;;;;18.67;15.18;;;;;;;22.58;79.90;99179.88;4911690;28;103628;-78
2021/07/17 11:26:23;;;;;;;13.85;12.13;;;;;;;22.52;81.93;99179.59;4912405;28;102859;-80
2021/07/17 11:29:02;;;;;;;14.48;13.07;;;;;;;22.77;81.15;99182.19;4908347;28;102793;-76
2021/07/17 11:31:39;;;;;;;14.95;13.40;;;;;;;22.63;81.07;99174.81;4926637;28;103211;-78
2021/07/17 11:34:30;;;;;;;16.20;14.38;;;;;;;22.65;79.34;99175.53;4916820;28;103106;-80
2021/07/17 11:37:06;;;;;;;11.90;10.93;;;;;;;22.95;79.48;99171.97;4894712;28;103194;-78
2021/07/17 11:39:37;;;;;;;16.00;12.98;;;;;;;22.95;78.97;99180.06;4911803;28;103833;-74
2021/07/17 11:42:08;;;;;;;17.73;14.88;;;;;;;22.63;79.54;99183.72;4913783;28;103290;-74
2021/07/17 11:44:38;;;;;;;17.27;15.27;;;;;;;22.62;80.10;99178.53;4904012;28;103132;-75
2021/07/17 11:47:10;;;;;;;13.20;11.82;;;;;;;22.42;81.71;99183.50;4913380;28;102926;-74
2021/07/17 11:49:42;;;;;;;13.80;12.38;;;;;;;22.54;80.49;99182.94;4923800;28;102788;-74
2021/07/17 11:52:12;;;;;;;11.85;10.73;;;;;;;22.75;80.44;99192.28;4891983;28;103171;-75
2021/07/17 11:54:42;;;;;;;17.65;14.25;;;;;;;22.70;79.80;99186.59;4870197;28;105582;-75
2021/07/17 11:57:16;;;;;;;11.90;10.77;;;;;;;22.44;80.33;99193.06;4893854;28;102612;-76
2021/07/17 11:59:47;;;;;;;13.38;12.07;;;;;;;22.66;79.74;99182.56;4890135;28;103135;-74
2021/07/17 12:02:17;;;;;;;13.18;11.82;;;;;;;22.79;79.59;99180.16;4892728;28;103406;-74
2021/07/17 12:04:49;;;;;;;11.60;10.52;;;;;;;22.63;79.70;99182.88;4886758;28;103419;-75
2021/07/17 12:07:21;;;;;;;14.30;12.85;;;;;;;22.79;78.92;99180.97;4874432;28;103237;-74
2021/07/17 12:09:51;;;;;;;16.85;14.25;;;;;;;22.38;79.70;99172.25;4887425;28;102860;-74
2021/07/17 12:12:27;;;;;;;15.20;13.63;;;;;;;22.33;80.20;99182.69;4870023;28;105921;-75
2021/07/17 12:15:16;;;;;;;15.82;14.25;;;;;;;22.44;80.13;99171.53;4877770;28;104382;-75
2021/07/17 12:17:56;;;;;;;15.48;14.02;;;;;;;22.49;81.05;99179.94;4892361;28;102610;-75
2021/07/17 12:20:28;;;;;;;14.52;13.20;;;;;;;22.32;81.01;99172.94;4889562;28;102869;-75
2021/07/17 12:23:00;;;;;;;12.70;11.40;;;;;;;22.23;81.92;99167.75;4874526;28;103917;-76
2021/07/17 12:25:30;;;;;;;16.98;13.50;;;;;;;22.37;80.70;99164.34;4889220;28;103162;-74
2021/07/17 12:28:17;;;;;;;15.02;13.63;;;;;;;22.47;80.48;99171.19;4890898;28;103090;-83
2021/07/17 12:30:47;;;;;;;15.02;12.77;;;;;;;22.65;80.49;99156.69;4886521;28;102668;-78
2021/07/17 12:33:27;;;;;;;14.13;12.68;;;;;;;22.66;80.91;99161.03;4895885;28;107238;-77
2021/07/17 12:36:08;;;;;;;17.10;13.95;;;;;;;22.76;78.40;99156.28;4874532;28;107418;-78
2021/07/17 12:38:39;;;;;;;15.30;13.90;;;;;;;22.94;78.36;99156.81;4901242;28;102641;-76
2021/07/17 12:41:10;;;;;;;18.23;13.05;;;;;;;22.85;78.53;99155.22;4892244;28;103303;-80
2021/07/17 12:43:42;;;;;;;14.95;13.55;;;;;;;22.90;78.46;99160.91;4896233;28;103395;-77
2021/07/17 12:46:13;;;;;;;18.75;14.25;;;;;;;22.86;78.77;99154.19;4870806;28;105933;-80
2021/07/17 12:48:54;;;;;;;12.50;11.38;;;;;;;22.91;79.29;99149.94;4893149;28;102620;-77
2021/07/17 12:51:27;;;;;;;14.20;12.80;;;;;;;23.38;76.96;99144.38;4909196;28;102791;-76
2021/07/17 12:53:58;;;;;;;14.90;13.02;;;;;;;22.85;79.60;99147.94;4895885;28;106975;-76
2021/07/17 12:56:38;;;;;;;16.80;14.13;;;;;;;22.59;80.02;99141.19;4914159;28;103781;-76
2021/07/17 12:59:13;;;;;;;18.85;13.90;;;;;;;22.88;78.69;99139.53;4890139;28;102846;-77
2021/07/17 13:01:45;;;;;;;15.63;14.02;;;;;;;22.77;78.88;99139.09;4912915;28;102909;-76
2021/07/17 13:04:16;;;;;;;15.75;14.10;;;;;;;22.79;78.86;99142.47;4896316;28;103611;-75
2021/07/17 13:06:57;;;;;;;14.60;13.13;;;;;;;23.20;77.66;99141.16;4909998;28;103266;-75
2021/07/17 13:09:30;;;;;;;14.00;11.93;;;;;;;23.48;77.38;99145.00;4912271;28;102711;-76
2021/07/17 13:11:58;;;;;;;15.07;13.48;;;;;;;23.30;76.79;99147.13;4915469;28;102854;-75
2021/07/17 13:15:40;;;;;;;14.45;13.00;;;;;;;23.20;76.62;99146.53;5018631;27;102819;-74
2021/07/17 13:18:19;;;;;;;14.27;12.98;;;;;;;23.28;76.69;99142.94;5004447;28;103080;-75
2021/07/17 13:20:57;;;;;;;15.00;13.43;;;;;;;23.34;75.76;99142.22;4999466;27;103378;-75
2021/07/17 13:23:26;;;;;;;12.90;11.50;;;;;;;23.84;74.86;99133.50;5001997;28;103085;-75
2021/07/17 13:25:54;;;;;;;13.25;11.85;;;;;;;24.58;71.82;99133.34;5002121;28;102871;-74
2021/07/17 13:28:29;;;;;;;11.63;10.32;;;;;;;24.90;72.54;99121.25;5005451;28;102714;-75
2021/07/17 13:31:14;;;;;;;13.05;11.88;;;;;;;25.24;69.80;99125.94;4991392;28;107415;-74
2021/07/17 13:33:42;;;;;;;12.38;11.15;;;;;;;25.56;69.41;99119.19;5006365;28;103057;-74
2021/07/17 13:36:10;;;;;;;14.60;13.13;;;;;;;24.54;71.66;99126.63;5004125;28;102618;-75
2021/07/17 13:38:38;;;;;;;11.93;10.82;;;;;;;24.88;72.48;99125.16;5004876;28;102679;-75
2021/07/17 13:41:12;;;;;;;12.65;11.30;;;;;;;25.32;69.97;99125.81;5007739;28;103230;-74
2021/07/17 13:43:42;;;;;;;13.00;11.90;;;;;;;25.55;69.12;99121.06;5008596;28;103149;-74
2021/07/17 13:46:11;;;;;;;11.77;10.75;;;;;;;25.54;68.44;99123.97;5008380;28;102654;-76
2021/07/17 13:48:39;;;;;;;14.65;13.27;;;;;;;23.67;74.82;99131.00;5011241;28;102903;-75
2021/07/17 13:51:10;;;;;;;12.95;11.88;;;;;;;24.32;73.38;99133.00;5008301;28;103420;-75
2021/07/17 13:53:38;;;;;;;13.48;12.18;;;;;;;24.45;73.88;99122.34;5000274;28;103090;-75
2021/07/17 13:56:09;;;;;;;12.82;11.57;;;;;;;24.27;73.97;99127.31;5009712;28;103105;-76
2021/07/17 13:58:38;;;;;;;12.55;11.40;;;;;;;24.56;72.07;99113.75;5008761;27;102659;-75
2021/07/17 14:01:08;;;;;;;16.75;12.27;;;;;;;24.09;73.28;99116.03;5007049;28;103432;-75
2021/07/17 14:03:40;;;;;;;13.95;12.02;;;;;;;24.27;72.74;99119.22;5008696;28;103467;-75
2021/07/17 14:06:10;;;;;;;12.93;11.27;;;;;;;24.38;71.67;99113.34;5006650;28;102675;-75
2021/07/17 14:08:40;;;;;;;12.40;11.20;;;;;;;24.59;71.74;99116.09;4987856;28;102760;-75
2021/07/17 14:11:10;;;;;;;12.45;10.65;;;;;;;24.23;73.07;99112.53;5008242;28;103690;-75
2021/07/17 14:13:41;;;;;;;12.63;11.48;;;;;;;23.65;75.42;99118.72;5007548;28;103451;-75
2021/07/17 14:16:11;;;;;;;12.57;11.30;;;;;;;23.46;75.94;99109.28;5007029;28;102598;-74
2021/07/17 14:18:42;;;;;;;11.07;9.98;;;;;;;23.81;74.25;99115.00;5008098;28;102647;-74
2021/07/17 14:21:10;;;;;;;12.27;11.07;;;;;;;23.89;74.49;99109.53;5006788;27;103491;-74
2021/07/17 14:23:38;;;;;;;11.95;10.75;;;;;;;23.75;74.99;99113.88;5009461;28;104285;-74
2021/07/17 14:26:08;;;;;;;13.10;11.70;;;;;;;22.89;77.40;99119.66;4974201;28;103005;-74
2021/07/17 14:28:38;;;;;;;13.43;12.18;;;;;;;23.07;77.09;99104.00;4996335;28;102794;-74
2021/07/17 14:31:08;;;;;;;13.85;12.13;;;;;;;23.09;77.33;99106.53;4967507;28;105878;-74
2021/07/17 14:33:36;;;;;;;12.25;11.10;;;;;;;23.32;76.78;99101.97;4995669;28;103632;-74
2021/07/17 14:36:06;;;;;;;12.57;11.23;;;;;;;23.46;76.09;99093.13;4995249;28;102899;-74
2021/07/17 14:38:35;;;;;;;10.70;9.80;;;;;;;23.29;77.70;99096.94;4976974;28;102661;-74
2021/07/17 14:41:05;;;;;;;12.88;11.57;;;;;;;23.81;76.05;99096.97;4995583;28;103210;-75
2021/07/17 14:43:33;;;;;;;10.30;9.32;;;;;;;24.00;75.49;99087.50;4993925;28;103148;-74
2021/07/17 14:46:01;;;;;;;13.35;11.75;;;;;;;23.79;75.38;99093.63;4995447;28;102694;-74
2021/07/17 14:48:29;;;;;;;13.15;11.85;;;;;;;23.88;75.91;99089.81;4993803;28;102626;-74
2021/07/17 14:50:57;;;;;;;12.02;11.02;;;;;;;23.76;76.27;99082.34;4989437;28;103205;-74
2021/07/17 14:53:27;;;;;;;12.35;11.02;;;;;;;23.96;75.46;99088.88;4987429;28;103285;-74
2021/07/17 14:55:55;;;;;;;11.63;10.43;;;;;;;24.18;74.91;99075.31;4996358;28;102678;-74
2021/07/17 14:58:23;;;;;;;11.35;10.35;;;;;;;24.10;75.02;99078.09;4977357;28;102807;-74
2021/07/17 15:00:51;;;;;;;14.95;13.35;;;;;;;23.57;76.89;99079.19;4951401;28;103242;-74
2021/07/17 15:03:19;;;;;;;13.45;11.95;;;;;;;23.78;76.90;99081.13;4979023;28;103189;-74
2021/07/17 15:05:48;;;;;;;13.02;11.82;;;;;;;23.82;76.30;99084.31;4993841;28;102656;-75
2021/07/17 15:08:16;;;;;;;12.02;10.77;;;;;;;24.39;74.71;99077.22;4990405;28;102734;-75
2021/07/17 15:10:46;;;;;;;13.88;11.75;;;;;;;24.40;74.65;99087.00;4994312;28;102964;-76
2021/07/17 15:13:14;;;;;;;11.20;10.13;;;;;;;24.72;73.62;99081.13;4989718;28;103132;-77
2021/07/17 15:15:43;;;;;;;12.32;11.02;;;;;;;24.60;74.17;99079.13;4992733;28;103611;-77
2021/07/17 15:18:11;;;;;;;12.57;11.27;;;;;;;24.71;73.52;99074.06;4969050;28;102916;-75
2021/07/17 15:20:39;;;;;;;24.13;14.40;;;;;;;24.84;73.00;99072.56;4995818;28;103365;-77
2021/07/17 15:23:07;;;;;;;22.27;15.40;;;;;;;24.88;73.34;99065.72;4991431;28;102709;-79
2021/07/17 15:25:35;;;;;;;12.07;10.85;;;;;;;25.19;72.49;99063.53;4997207;28;103190;-76
2021/07/17 15:28:04;;;;;;;13.48;11.68;;;;;;;24.44;75.47;99066.69;4971232;28;102767;-79
2021/07/17 15:30:33;;;;;;;17.02;12.48;;;;;;;24.18;75.23;99072.59;4993157;28;103491;-81
2021/07/17 15:33:01;;;;;;;12.40;10.95;;;;;;;24.27;75.68;99065.25;4973061;28;103240;-83
2021/07/17 15:35:32;;;;;;;11.48;10.38;;;;;;;24.45;75.29;99068.34;4991756;28;102584;-80
2021/07/17 15:38:01;;;;;;;9.77;8.88;;;;;;;24.81;73.75;99062.13;4993037;28;102844;-79
2021/07/17 15:40:29;;;;;;;12.40;11.10;;;;;;;25.01;72.07;99065.88;4978897;28;104047;-79
2021/07/17 15:42:58;;;;;;;13.38;12.00;;;;;;;24.20;75.14;99053.50;4998860;28;103141;-76
2021/07/17 15:45:27;;;;;;;13.25;11.05;;;;;;;24.54;73.27;99045.59;4984896;28;103115;-77
2021/07/17 15:47:57;;;;;;;12.15;10.98;;;;;;;23.98;75.66;99044.47;4989507;28;103059;-78
2021/07/17 15:50:27;;;;;;;11.48;10.27;;;;;;;24.19;75.68;99039.19;4994594;28;103195;-80
2021/07/17 15:52:55;;;;;;;13.15;11.07;;;;;;;24.32;74.85;99041.19;4985019;28;103241;-82
2021/07/17 15:55:23;;;;;;;9.77;8.70;;;;;;;24.76;73.93;99036.47;4993215;28;102680;-77
2021/07/17 15:57:51;;;;;;;10.98;9.88;;;;;;;25.05;72.98;99045.50;4990935;28;102885;-79
2021/07/17 16:00:20;;;;;;;13.35;10.98;;;;;;;24.64;74.27;99035.34;4992200;28;103391;-76
2021/07/17 16:02:49;;;;;;;10.27;9.38;;;;;;;24.72;74.55;99034.38;4970765;28;103830;-76
2021/07/17 16:05:18;;;;;;;11.07;9.00;;;;;;;25.36;72.36;99030.59;4988873;28;102733;-77
2021/07/17 16:07:47;;;;;;;11.77;10.77;;;;;;;24.75;73.88;99032.13;4972148;28;103083;-78
2021/07/17 16:10:15;;;;;;;11.40;10.20;;;;;;;25.17;72.94;99031.28;4971335;28;103326;-79
2021/07/17 16:12:43;;;;;;;10.30;9.50;;;;;;;24.81;74.07;99035.13;4979322;28;103145;-81
2021/07/17 16:15:11;;;;;;;10.07;9.18;;;;;;;25.50;72.20;99031.56;4983812;28;102888;-80